sensor_id;sensor_type;location;lat;lon;timestamp;P1;durP1;ratioP1;P2;durP2;ratioP2
56307;SDS011;42217;50.422;7.210;2023-04-04T00:00:37;136.57;;;130.17;;
56307;SDS011;42217;50.422;7.210;2023-04-04T00:03:03;138.07;;;131.50;;
56307;SDS011;42217;50.422;7.210;2023-04-04T00:05:29;136.60;;;130.37;;
56307;SDS011;42217;50.422;7.210;2023-04-04T00:07:55;136.77;;;130.67;;
56307;SDS011;42217;50.422;7.210;2023-04-04T00:10:21;133.33;;;127.17;;
56307;SDS011;42217;50.422;7.210;2023-04-04T00:12:47;132.23;;;125.97;;
56307;SDS011;42217;50.422;7.210;2023-04-04T00:15:12;131.53;;;125.33;;
56307;SDS011;42217;50.422;7.210;2023-04-04T00:17:38;129.83;;;123.93;;
56307;SDS011;42217;50.422;7.210;2023-04-04T00:20:04;130.53;;;124.33;;
56307;SDS011;42217;50.422;7.210;2023-04-04T00:22:30;129.77;;;123.93;;
56307;SDS011;42217;50.422;7.210;2023-04-04T00:24:56;127.20;;;121.27;;
56307;SDS011;42217;50.422;7.210;2023-04-04T00:27:22;125.17;;;119.57;;
56307;SDS011;42217;50.422;7.210;2023-04-04T00:29:47;127.23;;;121.53;;
56307;SDS011;42217;50.422;7.210;2023-04-04T00:32:13;122.60;;;116.77;;
56307;SDS011;42217;50.422;7.210;2023-04-04T00:34:40;126.30;;;120.57;;
56307;SDS011;42217;50.422;7.210;2023-04-04T00:37:06;128.87;;;123.00;;
56307;SDS011;42217;50.422;7.210;2023-04-04T00:39:32;121.77;;;116.37;;
56307;SDS011;42217;50.422;7.210;2023-04-04T00:41:58;125.67;;;119.93;;
56307;SDS011;42217;50.422;7.210;2023-04-04T00:44:23;123.27;;;117.10;;
56307;SDS011;42217;50.422;7.210;2023-04-04T00:46:50;122.77;;;116.87;;
56307;SDS011;42217;50.422;7.210;2023-04-04T00:49:16;121.17;;;115.73;;
56307;SDS011;42217;50.422;7.210;2023-04-04T00:51:42;123.57;;;118.07;;
56307;SDS011;42217;50.422;7.210;2023-04-04T00:54:08;121.53;;;115.93;;
56307;SDS011;42217;50.422;7.210;2023-04-04T00:56:35;119.63;;;114.03;;
56307;SDS011;42217;50.422;7.210;2023-04-04T00:59:02;121.27;;;115.60;;
56307;SDS011;42217;50.422;7.210;2023-04-04T01:01:28;119.63;;;114.33;;
56307;SDS011;42217;50.422;7.210;2023-04-04T01:03:55;119.43;;;113.87;;
56307;SDS011;42217;50.422;7.210;2023-04-04T01:06:21;122.93;;;117.33;;
56307;SDS011;42217;50.422;7.210;2023-04-04T01:08:47;118.47;;;113.10;;
56307;SDS011;42217;50.422;7.210;2023-04-04T01:11:15;118.70;;;113.37;;
56307;SDS011;42217;50.422;7.210;2023-04-04T01:13:41;118.77;;;113.47;;
56307;SDS011;42217;50.422;7.210;2023-04-04T01:16:07;115.60;;;110.10;;
56307;SDS011;42217;50.422;7.210;2023-04-04T01:18:33;115.43;;;110.33;;
56307;SDS011;42217;50.422;7.210;2023-04-04T01:21:02;116.37;;;111.17;;
56307;SDS011;42217;50.422;7.210;2023-04-04T01:24:16;116.30;;;111.10;;
56307;SDS011;42217;50.422;7.210;2023-04-04T01:26:25;115.53;;;110.43;;
56307;SDS011;42217;50.422;7.210;2023-04-04T01:28:52;115.43;;;110.13;;
56307;SDS011;42217;50.422;7.210;2023-04-04T01:31:30;111.00;;;105.80;;
56307;SDS011;42217;50.422;7.210;2023-04-04T01:33:59;112.20;;;107.10;;
56307;SDS011;42217;50.422;7.210;2023-04-04T01:36:39;109.57;;;104.67;;
56307;SDS011;42217;50.422;7.210;2023-04-04T01:42:03;111.37;;;106.37;;
56307;SDS011;42217;50.422;7.210;2023-04-04T01:44:30;107.77;;;102.63;;
56307;SDS011;42217;50.422;7.210;2023-04-04T01:46:56;109.40;;;104.40;;
56307;SDS011;42217;50.422;7.210;2023-04-04T01:49:22;113.40;;;108.20;;
56307;SDS011;42217;50.422;7.210;2023-04-04T01:51:49;111.60;;;106.40;;
56307;SDS011;42217;50.422;7.210;2023-04-04T01:54:16;109.00;;;104.10;;
56307;SDS011;42217;50.422;7.210;2023-04-04T01:56:43;107.40;;;102.70;;
56307;SDS011;42217;50.422;7.210;2023-04-04T01:59:10;110.53;;;105.63;;
56307;SDS011;42217;50.422;7.210;2023-04-04T02:01:36;109.07;;;104.07;;
56307;SDS011;42217;50.422;7.210;2023-04-04T02:04:02;108.20;;;103.37;;
56307;SDS011;42217;50.422;7.210;2023-04-04T02:06:28;108.40;;;103.57;;
56307;SDS011;42217;50.422;7.210;2023-04-04T02:08:54;108.20;;;102.93;;
56307;SDS011;42217;50.422;7.210;2023-04-04T02:11:20;108.57;;;103.63;;
56307;SDS011;42217;50.422;7.210;2023-04-04T02:13:47;107.53;;;102.70;;
56307;SDS011;42217;50.422;7.210;2023-04-04T02:16:13;107.90;;;102.63;;
56307;SDS011;42217;50.422;7.210;2023-04-04T02:18:39;108.93;;;103.20;;
56307;SDS011;42217;50.422;7.210;2023-04-04T02:21:05;106.00;;;100.77;;
56307;SDS011;42217;50.422;7.210;2023-04-04T02:23:31;103.87;;;99.03;;
56307;SDS011;42217;50.422;7.210;2023-04-04T02:25:57;106.33;;;101.20;;
56307;SDS011;42217;50.422;7.210;2023-04-04T02:28:23;108.40;;;103.47;;
56307;SDS011;42217;50.422;7.210;2023-04-04T02:30:49;107.27;;;102.10;;
56307;SDS011;42217;50.422;7.210;2023-04-04T02:33:14;107.03;;;102.03;;
56307;SDS011;42217;50.422;7.210;2023-04-04T02:35:41;102.93;;;98.30;;
56307;SDS011;42217;50.422;7.210;2023-04-04T02:38:06;105.67;;;100.70;;
56307;SDS011;42217;50.422;7.210;2023-04-04T02:40:32;104.67;;;99.87;;
56307;SDS011;42217;50.422;7.210;2023-04-04T02:42:58;102.20;;;97.23;;
56307;SDS011;42217;50.422;7.210;2023-04-04T02:45:24;103.70;;;98.97;;
56307;SDS011;42217;50.422;7.210;2023-04-04T02:47:50;102.07;;;97.53;;
56307;SDS011;42217;50.422;7.210;2023-04-04T02:50:17;105.13;;;100.23;;
56307;SDS011;42217;50.422;7.210;2023-04-04T02:52:43;102.63;;;97.93;;
56307;SDS011;42217;50.422;7.210;2023-04-04T02:55:08;101.40;;;96.70;;
56307;SDS011;42217;50.422;7.210;2023-04-04T02:57:34;101.33;;;96.73;;
56307;SDS011;42217;50.422;7.210;2023-04-04T03:00:00;106.03;;;100.90;;
56307;SDS011;42217;50.422;7.210;2023-04-04T03:02:28;102.23;;;97.23;;
56307;SDS011;42217;50.422;7.210;2023-04-04T03:04:54;102.80;;;97.53;;
56307;SDS011;42217;50.422;7.210;2023-04-04T03:07:20;102.03;;;97.33;;
56307;SDS011;42217;50.422;7.210;2023-04-04T03:09:47;98.53;;;94.17;;
56307;SDS011;42217;50.422;7.210;2023-04-04T03:12:13;102.20;;;97.30;;
56307;SDS011;42217;50.422;7.210;2023-04-04T03:14:39;98.73;;;94.20;;
56307;SDS011;42217;50.422;7.210;2023-04-04T03:17:04;95.30;;;91.00;;
56307;SDS011;42217;50.422;7.210;2023-04-04T03:19:31;94.73;;;90.13;;
56307;SDS011;42217;50.422;7.210;2023-04-04T03:21:57;99.97;;;95.10;;
56307;SDS011;42217;50.422;7.210;2023-04-04T03:24:23;95.90;;;91.30;;
56307;SDS011;42217;50.422;7.210;2023-04-04T03:26:49;98.73;;;93.40;;
56307;SDS011;42217;50.422;7.210;2023-04-04T03:29:15;97.13;;;92.63;;
56307;SDS011;42217;50.422;7.210;2023-04-04T03:31:41;93.90;;;89.50;;
56307;SDS011;42217;50.422;7.210;2023-04-04T03:34:07;94.87;;;90.43;;
56307;SDS011;42217;50.422;7.210;2023-04-04T03:36:33;97.70;;;93.20;;
56307;SDS011;42217;50.422;7.210;2023-04-04T03:38:59;94.80;;;90.17;;
56307;SDS011;42217;50.422;7.210;2023-04-04T03:41:25;95.37;;;90.83;;
56307;SDS011;42217;50.422;7.210;2023-04-04T03:43:53;96.83;;;91.17;;
56307;SDS011;42217;50.422;7.210;2023-04-04T03:46:19;97.60;;;92.50;;
56307;SDS011;42217;50.422;7.210;2023-04-04T03:48:45;93.47;;;89.17;;
56307;SDS011;42217;50.422;7.210;2023-04-04T03:51:11;96.53;;;91.80;;
56307;SDS011;42217;50.422;7.210;2023-04-04T03:53:37;93.47;;;89.07;;
56307;SDS011;42217;50.422;7.210;2023-04-04T03:56:02;92.73;;;88.50;;
56307;SDS011;42217;50.422;7.210;2023-04-04T03:58:28;92.93;;;88.77;;
56307;SDS011;42217;50.422;7.210;2023-04-04T04:00:54;94.07;;;88.93;;
56307;SDS011;42217;50.422;7.210;2023-04-04T04:03:20;93.50;;;89.10;;
56307;SDS011;42217;50.422;7.210;2023-04-04T04:05:46;94.17;;;89.93;;
56307;SDS011;42217;50.422;7.210;2023-04-04T04:08:12;96.33;;;91.67;;
56307;SDS011;42217;50.422;7.210;2023-04-04T04:10:38;93.90;;;89.30;;
56307;SDS011;42217;50.422;7.210;2023-04-04T04:13:04;94.97;;;90.60;;
56307;SDS011;42217;50.422;7.210;2023-04-04T04:15:29;92.30;;;88.10;;
56307;SDS011;42217;50.422;7.210;2023-04-04T04:17:55;95.10;;;90.50;;
56307;SDS011;42217;50.422;7.210;2023-04-04T04:20:21;91.60;;;87.30;;
56307;SDS011;42217;50.422;7.210;2023-04-04T04:22:47;91.57;;;87.10;;
56307;SDS011;42217;50.422;7.210;2023-04-04T04:25:14;93.57;;;89.17;;
56307;SDS011;42217;50.422;7.210;2023-04-04T04:27:40;90.77;;;86.77;;
56307;SDS011;42217;50.422;7.210;2023-04-04T04:30:06;91.53;;;87.10;;
56307;SDS011;42217;50.422;7.210;2023-04-04T04:32:33;95.33;;;90.50;;
56307;SDS011;42217;50.422;7.210;2023-04-04T04:34:59;94.53;;;90.27;;
56307;SDS011;42217;50.422;7.210;2023-04-04T04:37:24;91.57;;;87.37;;
56307;SDS011;42217;50.422;7.210;2023-04-04T04:39:51;92.10;;;87.93;;
56307;SDS011;42217;50.422;7.210;2023-04-04T04:42:17;89.87;;;85.73;;
56307;SDS011;42217;50.422;7.210;2023-04-04T04:44:43;100.93;;;96.23;;
56307;SDS011;42217;50.422;7.210;2023-04-04T04:47:09;90.70;;;86.23;;
56307;SDS011;42217;50.422;7.210;2023-04-04T04:49:35;88.70;;;84.50;;
56307;SDS011;42217;50.422;7.210;2023-04-04T04:52:01;90.60;;;85.70;;
56307;SDS011;42217;50.422;7.210;2023-04-04T04:54:27;91.63;;;87.07;;
56307;SDS011;42217;50.422;7.210;2023-04-04T04:56:52;92.00;;;87.90;;
56307;SDS011;42217;50.422;7.210;2023-04-04T04:59:18;90.50;;;86.30;;
56307;SDS011;42217;50.422;7.210;2023-04-04T05:01:44;92.13;;;87.90;;
56307;SDS011;42217;50.422;7.210;2023-04-04T05:04:10;91.63;;;85.53;;
56307;SDS011;42217;50.422;7.210;2023-04-04T05:06:37;89.13;;;85.03;;
56307;SDS011;42217;50.422;7.210;2023-04-04T05:09:03;90.53;;;86.43;;
56307;SDS011;42217;50.422;7.210;2023-04-04T05:11:28;89.07;;;84.90;;
56307;SDS011;42217;50.422;7.210;2023-04-04T05:13:55;92.53;;;87.90;;
56307;SDS011;42217;50.422;7.210;2023-04-04T05:16:21;92.90;;;88.60;;
56307;SDS011;42217;50.422;7.210;2023-04-04T05:18:47;92.47;;;87.47;;
56307;SDS011;42217;50.422;7.210;2023-04-04T05:21:12;89.17;;;85.07;;
56307;SDS011;42217;50.422;7.210;2023-04-04T05:23:38;99.87;;;94.97;;
56307;SDS011;42217;50.422;7.210;2023-04-04T05:26:04;100.33;;;95.67;;
56307;SDS011;42217;50.422;7.210;2023-04-04T05:28:30;93.53;;;88.50;;
56307;SDS011;42217;50.422;7.210;2023-04-04T05:30:56;90.60;;;86.23;;
56307;SDS011;42217;50.422;7.210;2023-04-04T05:33:22;90.83;;;86.67;;
56307;SDS011;42217;50.422;7.210;2023-04-04T05:35:47;93.27;;;88.50;;
56307;SDS011;42217;50.422;7.210;2023-04-04T05:38:13;93.73;;;88.97;;
56307;SDS011;42217;50.422;7.210;2023-04-04T05:40:39;94.30;;;89.43;;
56307;SDS011;42217;50.422;7.210;2023-04-04T05:43:05;91.70;;;87.47;;
56307;SDS011;42217;50.422;7.210;2023-04-04T05:45:32;90.40;;;86.37;;
56307;SDS011;42217;50.422;7.210;2023-04-04T05:47:57;96.93;;;92.23;;
56307;SDS011;42217;50.422;7.210;2023-04-04T05:50:23;97.30;;;92.43;;
56307;SDS011;42217;50.422;7.210;2023-04-04T05:52:52;98.10;;;92.60;;
56307;SDS011;42217;50.422;7.210;2023-04-04T05:55:19;101.83;;;96.33;;
56307;SDS011;42217;50.422;7.210;2023-04-04T05:57:51;99.03;;;94.50;;
56307;SDS011;42217;50.422;7.210;2023-04-04T06:00:17;99.33;;;94.43;;
56307;SDS011;42217;50.422;7.210;2023-04-04T06:02:43;99.77;;;95.03;;
56307;SDS011;42217;50.422;7.210;2023-04-04T06:05:09;100.37;;;95.77;;
56307;SDS011;42217;50.422;7.210;2023-04-04T06:07:36;101.23;;;95.80;;
56307;SDS011;42217;50.422;7.210;2023-04-04T06:10:02;102.43;;;97.40;;
56307;SDS011;42217;50.422;7.210;2023-04-04T06:12:29;102.60;;;97.23;;
56307;SDS011;42217;50.422;7.210;2023-04-04T06:14:55;105.27;;;100.27;;
56307;SDS011;42217;50.422;7.210;2023-04-04T06:17:21;106.23;;;101.23;;
56307;SDS011;42217;50.422;7.210;2023-04-04T06:19:48;103.80;;;98.63;;
56307;SDS011;42217;50.422;7.210;2023-04-04T06:22:14;105.33;;;100.53;;
56307;SDS011;42217;50.422;7.210;2023-04-04T06:24:41;108.10;;;102.63;;
56307;SDS011;42217;50.422;7.210;2023-04-04T06:27:07;107.00;;;102.00;;
56307;SDS011;42217;50.422;7.210;2023-04-04T06:29:33;104.10;;;99.07;;
56307;SDS011;42217;50.422;7.210;2023-04-04T06:31:59;104.80;;;98.87;;
56307;SDS011;42217;50.422;7.210;2023-04-04T06:34:25;104.97;;;99.63;;
56307;SDS011;42217;50.422;7.210;2023-04-04T06:36:50;100.77;;;96.00;;
56307;SDS011;42217;50.422;7.210;2023-04-04T06:39:16;98.50;;;93.60;;
56307;SDS011;42217;50.422;7.210;2023-04-04T06:41:42;97.90;;;93.00;;
56307;SDS011;42217;50.422;7.210;2023-04-04T06:44:08;100.40;;;94.90;;
56307;SDS011;42217;50.422;7.210;2023-04-04T06:46:36;95.40;;;90.73;;
56307;SDS011;42217;50.422;7.210;2023-04-04T06:49:03;96.47;;;91.57;;
56307;SDS011;42217;50.422;7.210;2023-04-04T06:51:29;92.83;;;88.20;;
56307;SDS011;42217;50.422;7.210;2023-04-04T06:53:55;95.70;;;90.80;;
56307;SDS011;42217;50.422;7.210;2023-04-04T06:56:22;100.83;;;95.27;;
56307;SDS011;42217;50.422;7.210;2023-04-04T06:58:48;103.33;;;98.43;;
56307;SDS011;42217;50.422;7.210;2023-04-04T07:01:14;104.87;;;99.90;;
56307;SDS011;42217;50.422;7.210;2023-04-04T07:03:41;103.00;;;97.93;;
56307;SDS011;42217;50.422;7.210;2023-04-04T07:06:08;108.53;;;103.43;;
56307;SDS011;42217;50.422;7.210;2023-04-04T07:08:35;107.53;;;102.43;;
56307;SDS011;42217;50.422;7.210;2023-04-04T07:11:00;115.93;;;110.43;;
56307;SDS011;42217;50.422;7.210;2023-04-04T07:13:26;123.03;;;116.30;;
56307;SDS011;42217;50.422;7.210;2023-04-04T07:15:52;124.10;;;118.40;;
56307;SDS011;42217;50.422;7.210;2023-04-04T07:18:18;125.40;;;119.20;;
56307;SDS011;42217;50.422;7.210;2023-04-04T07:20:46;121.17;;;115.37;;
56307;SDS011;42217;50.422;7.210;2023-04-04T07:23:12;121.63;;;115.50;;
56307;SDS011;42217;50.422;7.210;2023-04-04T07:25:39;120.90;;;115.30;;
56307;SDS011;42217;50.422;7.210;2023-04-04T07:28:05;127.37;;;121.67;;
56307;SDS011;42217;50.422;7.210;2023-04-04T07:30:31;128.60;;;122.50;;
56307;SDS011;42217;50.422;7.210;2023-04-04T07:33:00;131.73;;;125.83;;
56307;SDS011;42217;50.422;7.210;2023-04-04T07:35:27;132.27;;;126.13;;
56307;SDS011;42217;50.422;7.210;2023-04-04T07:37:53;128.50;;;122.47;;
56307;SDS011;42217;50.422;7.210;2023-04-04T07:40:19;130.90;;;124.80;;
56307;SDS011;42217;50.422;7.210;2023-04-04T07:42:46;141.13;;;134.60;;
56307;SDS011;42217;50.422;7.210;2023-04-04T07:45:15;134.43;;;127.83;;
56307;SDS011;42217;50.422;7.210;2023-04-04T07:47:42;129.70;;;123.43;;
56307;SDS011;42217;50.422;7.210;2023-04-04T07:50:09;146.13;;;139.23;;
56307;SDS011;42217;50.422;7.210;2023-04-04T07:52:35;137.67;;;131.27;;
56307;SDS011;42217;50.422;7.210;2023-04-04T07:55:01;132.57;;;126.57;;
56307;SDS011;42217;50.422;7.210;2023-04-04T07:57:28;132.67;;;126.67;;
56307;SDS011;42217;50.422;7.210;2023-04-04T07:59:53;133.10;;;127.00;;
56307;SDS011;42217;50.422;7.210;2023-04-04T08:02:19;136.40;;;130.10;;
56307;SDS011;42217;50.422;7.210;2023-04-04T08:04:45;134.33;;;128.07;;
56307;SDS011;42217;50.422;7.210;2023-04-04T08:07:11;137.47;;;131.27;;
56307;SDS011;42217;50.422;7.210;2023-04-04T08:09:36;136.17;;;129.87;;
56307;SDS011;42217;50.422;7.210;2023-04-04T08:12:02;131.73;;;125.73;;
56307;SDS011;42217;50.422;7.210;2023-04-04T08:14:30;144.77;;;137.97;;
56307;SDS011;42217;50.422;7.210;2023-04-04T08:16:56;142.67;;;136.20;;
56307;SDS011;42217;50.422;7.210;2023-04-04T08:19:21;139.53;;;133.23;;
56307;SDS011;42217;50.422;7.210;2023-04-04T08:21:47;132.77;;;126.73;;
56307;SDS011;42217;50.422;7.210;2023-04-04T08:24:14;137.33;;;130.67;;
56307;SDS011;42217;50.422;7.210;2023-04-04T08:26:40;137.17;;;130.77;;
56307;SDS011;42217;50.422;7.210;2023-04-04T08:29:06;134.37;;;128.23;;
56307;SDS011;42217;50.422;7.210;2023-04-04T08:31:32;136.00;;;129.70;;
56307;SDS011;42217;50.422;7.210;2023-04-04T08:33:58;137.63;;;131.20;;
56307;SDS011;42217;50.422;7.210;2023-04-04T08:36:26;138.73;;;132.33;;
56307;SDS011;42217;50.422;7.210;2023-04-04T08:38:52;133.37;;;126.67;;
56307;SDS011;42217;50.422;7.210;2023-04-04T08:41:17;131.87;;;125.97;;
56307;SDS011;42217;50.422;7.210;2023-04-04T08:43:44;131.47;;;125.47;;
56307;SDS011;42217;50.422;7.210;2023-04-04T08:46:18;130.93;;;124.93;;
56307;SDS011;42217;50.422;7.210;2023-04-04T08:48:47;145.20;;;136.77;;
56307;SDS011;42217;50.422;7.210;2023-04-04T08:51:14;135.87;;;129.50;;
56307;SDS011;42217;50.422;7.210;2023-04-04T08:53:43;129.77;;;123.63;;
56307;SDS011;42217;50.422;7.210;2023-04-04T08:56:09;125.93;;;119.97;;
56307;SDS011;42217;50.422;7.210;2023-04-04T08:58:35;128.43;;;122.37;;
56307;SDS011;42217;50.422;7.210;2023-04-04T09:01:05;130.20;;;124.03;;
56307;SDS011;42217;50.422;7.210;2023-04-04T09:03:32;129.27;;;122.90;;
56307;SDS011;42217;50.422;7.210;2023-04-04T09:06:00;132.73;;;126.80;;
56307;SDS011;42217;50.422;7.210;2023-04-04T09:08:29;127.47;;;121.43;;
56307;SDS011;42217;50.422;7.210;2023-04-04T09:10:55;126.73;;;121.10;;
56307;SDS011;42217;50.422;7.210;2023-04-04T09:13:22;126.10;;;120.00;;
56307;SDS011;42217;50.422;7.210;2023-04-04T09:15:49;122.93;;;117.33;;
56307;SDS011;42217;50.422;7.210;2023-04-04T09:18:16;123.60;;;117.80;;
56307;SDS011;42217;50.422;7.210;2023-04-04T09:20:43;118.73;;;113.13;;
56307;SDS011;42217;50.422;7.210;2023-04-04T09:23:13;123.80;;;118.00;;
56307;SDS011;42217;50.422;7.210;2023-04-04T09:25:44;119.70;;;114.07;;
56307;SDS011;42217;50.422;7.210;2023-04-04T09:28:15;118.80;;;113.23;;
56307;SDS011;42217;50.422;7.210;2023-04-04T09:30:41;113.17;;;107.77;;
56307;SDS011;42217;50.422;7.210;2023-04-04T09:33:11;120.13;;;114.47;;
56307;SDS011;42217;50.422;7.210;2023-04-04T09:35:38;112.37;;;107.17;;
56307;SDS011;42217;50.422;7.210;2023-04-04T09:38:07;111.90;;;106.83;;
56307;SDS011;42217;50.422;7.210;2023-04-04T09:40:34;117.80;;;112.10;;
56307;SDS011;42217;50.422;7.210;2023-04-04T09:43:01;118.43;;;112.97;;
56307;SDS011;42217;50.422;7.210;2023-04-04T09:45:38;115.03;;;109.73;;
56307;SDS011;42217;50.422;7.210;2023-04-04T09:48:06;116.73;;;111.43;;
56307;SDS011;42217;50.422;7.210;2023-04-04T09:50:33;119.90;;;114.30;;
56307;SDS011;42217;50.422;7.210;2023-04-04T09:53:01;117.70;;;111.83;;
56307;SDS011;42217;50.422;7.210;2023-04-04T09:55:33;114.50;;;109.30;;
56307;SDS011;42217;50.422;7.210;2023-04-04T09:58:13;116.70;;;111.33;;
56307;SDS011;42217;50.422;7.210;2023-04-04T10:00:41;119.20;;;113.70;;
56307;SDS011;42217;50.422;7.210;2023-04-04T10:03:12;118.73;;;113.33;;
56307;SDS011;42217;50.422;7.210;2023-04-04T10:05:39;113.67;;;107.83;;
56307;SDS011;42217;50.422;7.210;2023-04-04T10:08:15;115.97;;;110.37;;
56307;SDS011;42217;50.422;7.210;2023-04-04T10:10:48;119.53;;;113.93;;
56307;SDS011;42217;50.422;7.210;2023-04-04T10:13:22;115.10;;;109.70;;
56307;SDS011;42217;50.422;7.210;2023-04-04T10:15:56;115.40;;;110.03;;
56307;SDS011;42217;50.422;7.210;2023-04-04T10:18:25;117.17;;;111.77;;
56307;SDS011;42217;50.422;7.210;2023-04-04T10:20:55;116.30;;;110.73;;
56307;SDS011;42217;50.422;7.210;2023-04-04T10:23:23;140.03;;;133.43;;
56307;SDS011;42217;50.422;7.210;2023-04-04T10:25:58;110.53;;;105.23;;
56307;SDS011;42217;50.422;7.210;2023-04-04T10:28:24;118.32;;;112.90;;
56307;SDS011;42217;50.422;7.210;2023-04-04T10:30:56;112.33;;;107.23;;
56307;SDS011;42217;50.422;7.210;2023-04-04T10:34:03;111.67;;;105.87;;
56307;SDS011;42217;50.422;7.210;2023-04-04T10:37:06;110.17;;;105.17;;
56307;SDS011;42217;50.422;7.210;2023-04-04T10:39:36;115.63;;;109.90;;
56307;SDS011;42217;50.422;7.210;2023-04-04T10:42:14;107.93;;;102.53;;
56307;SDS011;42217;50.422;7.210;2023-04-04T10:44:40;111.67;;;106.37;;
56307;SDS011;42217;50.422;7.210;2023-04-04T10:47:20;112.33;;;106.47;;
56307;SDS011;42217;50.422;7.210;2023-04-04T10:49:47;104.70;;;99.90;;
56307;SDS011;42217;50.422;7.210;2023-04-04T10:52:18;111.30;;;105.83;;
56307;SDS011;42217;50.422;7.210;2023-04-04T10:54:48;109.33;;;103.90;;
56307;SDS011;42217;50.422;7.210;2023-04-04T10:57:18;111.03;;;105.63;;
56307;SDS011;42217;50.422;7.210;2023-04-04T11:03:00;141.43;;;134.70;;
56307;SDS011;42217;50.422;7.210;2023-04-04T11:07:56;105.37;;;100.50;;
56307;SDS011;42217;50.422;7.210;2023-04-04T11:10:24;108.27;;;103.20;;
56307;SDS011;42217;50.422;7.210;2023-04-04T11:12:52;116.87;;;111.13;;
56307;SDS011;42217;50.422;7.210;2023-04-04T11:15:20;110.03;;;104.53;;
56307;SDS011;42217;50.422;7.210;2023-04-04T11:20:20;105.50;;;100.30;;
56307;SDS011;42217;50.422;7.210;2023-04-04T11:25:30;101.60;;;96.90;;
56307;SDS011;42217;50.422;7.210;2023-04-04T11:27:56;97.37;;;92.77;;
56307;SDS011;42217;50.422;7.210;2023-04-04T11:30:26;103.37;;;98.57;;
56307;SDS011;42217;50.422;7.210;2023-04-04T11:32:52;119.77;;;113.97;;
56307;SDS011;42217;50.422;7.210;2023-04-04T11:35:26;106.43;;;101.63;;
56307;SDS011;42217;50.422;7.210;2023-04-04T11:40:18;100.80;;;96.07;;
56307;SDS011;42217;50.422;7.210;2023-04-04T11:42:44;100.80;;;95.80;;
56307;SDS011;42217;50.422;7.210;2023-04-04T11:45:19;97.32;;;92.47;;
56307;SDS011;42217;50.422;7.210;2023-04-04T11:47:46;98.60;;;93.97;;
56307;SDS011;42217;50.422;7.210;2023-04-04T11:50:13;96.97;;;92.17;;
56307;SDS011;42217;50.422;7.210;2023-04-04T11:52:40;95.83;;;91.43;;
56307;SDS011;42217;50.422;7.210;2023-04-04T11:55:16;96.03;;;91.07;;
56307;SDS011;42217;50.422;7.210;2023-04-04T11:57:47;119.03;;;112.30;;
56307;SDS011;42217;50.422;7.210;2023-04-04T12:00:31;95.77;;;91.13;;
56307;SDS011;42217;50.422;7.210;2023-04-04T12:02:59;96.33;;;91.73;;
56307;SDS011;42217;50.422;7.210;2023-04-04T12:05:25;93.53;;;89.07;;
56307;SDS011;42217;50.422;7.210;2023-04-04T12:07:52;99.63;;;94.87;;
56307;SDS011;42217;50.422;7.210;2023-04-04T12:10:18;94.60;;;89.93;;
56307;SDS011;42217;50.422;7.210;2023-04-04T12:12:46;104.90;;;100.10;;
56307;SDS011;42217;50.422;7.210;2023-04-04T12:15:15;93.50;;;89.13;;
56307;SDS011;42217;50.422;7.210;2023-04-04T12:17:41;92.20;;;87.63;;
56307;SDS011;42217;50.422;7.210;2023-04-04T12:20:12;92.63;;;88.27;;
56307;SDS011;42217;50.422;7.210;2023-04-04T12:22:40;94.97;;;90.50;;
56307;SDS011;42217;50.422;7.210;2023-04-04T12:25:06;84.03;;;80.20;;
56307;SDS011;42217;50.422;7.210;2023-04-04T12:27:32;85.23;;;81.23;;
56307;SDS011;42217;50.422;7.210;2023-04-04T12:29:59;103.87;;;98.97;;
56307;SDS011;42217;50.422;7.210;2023-04-04T12:32:25;95.43;;;90.23;;
56307;SDS011;42217;50.422;7.210;2023-04-04T12:34:51;90.40;;;85.67;;
56307;SDS011;42217;50.422;7.210;2023-04-04T12:37:19;87.13;;;82.93;;
56307;SDS011;42217;50.422;7.210;2023-04-04T12:39:47;91.83;;;87.47;;
56307;SDS011;42217;50.422;7.210;2023-04-04T12:42:19;87.60;;;83.17;;
56307;SDS011;42217;50.422;7.210;2023-04-04T12:44:48;88.13;;;83.67;;
56307;SDS011;42217;50.422;7.210;2023-04-04T12:47:16;88.67;;;84.47;;
56307;SDS011;42217;50.422;7.210;2023-04-04T12:49:46;93.53;;;89.07;;
56307;SDS011;42217;50.422;7.210;2023-04-04T12:54:46;83.00;;;79.17;;
56307;SDS011;42217;50.422;7.210;2023-04-04T12:57:16;79.67;;;75.97;;
56307;SDS011;42217;50.422;7.210;2023-04-04T12:59:46;85.77;;;81.73;;
56307;SDS011;42217;50.422;7.210;2023-04-04T13:02:13;123.73;;;117.57;;
56307;SDS011;42217;50.422;7.210;2023-04-04T13:04:46;76.03;;;72.43;;
56307;SDS011;42217;50.422;7.210;2023-04-04T13:07:26;82.00;;;78.10;;
56307;SDS011;42217;50.422;7.210;2023-04-04T13:12:32;77.90;;;74.33;;
56307;SDS011;42217;50.422;7.210;2023-04-04T13:18:15;77.17;;;73.67;;
56307;SDS011;42217;50.422;7.210;2023-04-04T13:20:43;73.80;;;70.03;;
56307;SDS011;42217;50.422;7.210;2023-04-04T13:23:08;73.77;;;70.03;;
56307;SDS011;42217;50.422;7.210;2023-04-04T13:25:34;76.03;;;72.47;;
56307;SDS011;42217;50.422;7.210;2023-04-04T13:28:01;73.10;;;69.60;;
56307;SDS011;42217;50.422;7.210;2023-04-04T13:30:26;80.63;;;76.53;;
56307;SDS011;42217;50.422;7.210;2023-04-04T13:32:53;79.83;;;76.10;;
56307;SDS011;42217;50.422;7.210;2023-04-04T13:35:18;74.03;;;70.53;;
56307;SDS011;42217;50.422;7.210;2023-04-04T13:37:44;68.33;;;65.07;;
56307;SDS011;42217;50.422;7.210;2023-04-04T13:40:10;77.27;;;73.73;;
56307;SDS011;42217;50.422;7.210;2023-04-04T13:42:36;63.13;;;60.17;;
56307;SDS011;42217;50.422;7.210;2023-04-04T13:45:01;63.60;;;60.53;;
56307;SDS011;42217;50.422;7.210;2023-04-04T13:47:27;62.50;;;59.27;;
56307;SDS011;42217;50.422;7.210;2023-04-04T13:49:53;65.80;;;62.53;;
56307;SDS011;42217;50.422;7.210;2023-04-04T13:52:19;67.77;;;64.27;;
56307;SDS011;42217;50.422;7.210;2023-04-04T13:54:46;55.40;;;52.73;;
56307;SDS011;42217;50.422;7.210;2023-04-04T13:57:11;56.20;;;53.23;;
56307;SDS011;42217;50.422;7.210;2023-04-04T13:59:37;52.30;;;49.30;;
56307;SDS011;42217;50.422;7.210;2023-04-04T14:02:03;57.90;;;55.17;;
56307;SDS011;42217;50.422;7.210;2023-04-04T14:04:29;53.60;;;51.03;;
56307;SDS011;42217;50.422;7.210;2023-04-04T14:06:55;55.22;;;52.55;;
56307;SDS011;42217;50.422;7.210;2023-04-04T14:09:21;58.95;;;56.15;;
56307;SDS011;42217;50.422;7.210;2023-04-04T14:11:47;63.97;;;60.75;;
56307;SDS011;42217;50.422;7.210;2023-04-04T14:14:13;54.10;;;51.28;;
56307;SDS011;42217;50.422;7.210;2023-04-04T14:16:38;56.83;;;53.72;;
56307;SDS011;42217;50.422;7.210;2023-04-04T14:19:04;56.90;;;53.65;;
56307;SDS011;42217;50.422;7.210;2023-04-04T14:21:31;49.55;;;47.15;;
56307;SDS011;42217;50.422;7.210;2023-04-04T14:23:56;47.05;;;44.75;;
56307;SDS011;42217;50.422;7.210;2023-04-04T14:26:22;48.13;;;45.55;;
56307;SDS011;42217;50.422;7.210;2023-04-04T14:28:48;47.13;;;44.83;;
56307;SDS011;42217;50.422;7.210;2023-04-04T14:31:14;48.33;;;45.58;;
56307;SDS011;42217;50.422;7.210;2023-04-04T14:33:39;47.15;;;44.72;;